createdAt,value
2022-11-29T00:01:41.474Z,79.61
2022-11-29T00:04:10.357Z,79.37
2022-11-29T00:06:39.243Z,79.20
2022-11-29T00:09:11.802Z,79.58
2022-11-29T00:12:00.787Z,79.61
2022-11-29T00:14:29.724Z,79.36
2022-11-29T00:17:02.781Z,79.42
2022-11-29T00:19:33.096Z,79.71
2022-11-29T00:22:02.117Z,79.67
2022-11-29T00:24:32.693Z,79.36
2022-11-29T00:27:01.553Z,79.91
2022-11-29T00:29:30.450Z,80.19
2022-11-29T00:31:59.426Z,80.18
2022-11-29T00:34:28.399Z,80.67
2022-11-29T00:36:56.688Z,80.72
2022-11-29T00:39:25.065Z,80.93
2022-11-29T00:41:53.387Z,80.98
2022-11-29T00:44:22.009Z,81.08
2022-11-29T00:46:50.224Z,80.76
2022-11-29T00:49:18.636Z,80.85
2022-11-29T00:51:47.728Z,80.94
2022-11-29T00:54:16.999Z,81.13
2022-11-29T00:56:45.297Z,80.50
2022-11-29T00:59:13.571Z,81.26
2022-11-29T01:01:41.884Z,81.01
2022-11-29T01:04:10.336Z,80.92
2022-11-29T01:06:38.716Z,80.87
2022-11-29T01:09:07.332Z,80.88
2022-11-29T01:11:35.691Z,80.72
2022-11-29T01:14:04.727Z,81.50
2022-11-29T01:16:33.160Z,81.36
2022-11-29T01:19:01.587Z,81.68
2022-11-29T01:21:30.954Z,81.38
2022-11-29T01:24:01.856Z,81.19
2022-11-29T01:26:30.600Z,81.42
2022-11-29T01:28:59.740Z,81.40
2022-11-29T01:31:36.538Z,81.61
2022-11-29T01:34:06.810Z,81.56
2022-11-29T01:36:35.836Z,81.68
2022-11-29T01:39:06.266Z,81.31
2022-11-29T01:41:36.904Z,81.19
2022-11-29T01:44:30.954Z,81.38
2022-11-29T01:46:59.233Z,81.31
2022-11-29T01:49:39.411Z,81.38
2022-11-29T01:52:16.806Z,81.54
2022-11-29T01:54:51.143Z,81.31
2022-11-29T01:57:21.015Z,81.54
2022-11-29T01:59:52.696Z,81.37
2022-11-29T02:02:28.560Z,81.44
2022-11-29T02:05:00.822Z,81.24
2022-11-29T02:07:29.145Z,81.53
2022-11-29T02:09:57.507Z,81.62
2022-11-29T02:12:49.790Z,81.71
2022-11-29T02:15:46.562Z,81.90
2022-11-29T02:18:26.745Z,81.84
2022-11-29T02:21:04.413Z,82.22
2022-11-29T02:24:13.735Z,81.93
2022-11-29T02:27:03.289Z,82.17
2022-11-29T02:29:57.925Z,81.74
2022-11-29T02:32:41.544Z,81.89
2022-11-29T02:35:28.405Z,81.51
2022-11-29T02:38:06.948Z,81.61
2022-11-29T02:41:01.218Z,81.52
2022-11-29T02:43:44.845Z,82.70
2022-11-29T02:46:29.127Z,82.21
2022-11-29T02:49:08.621Z,81.82
2022-11-29T02:51:43.016Z,81.72
2022-11-29T02:54:27.522Z,81.94
2022-11-29T02:57:13.317Z,81.97
2022-11-29T03:00:00.207Z,82.10
2022-11-29T03:02:31.547Z,81.34
2022-11-29T03:05:27.739Z,81.78
2022-11-29T03:08:06.540Z,82.03
2022-11-29T03:11:04.310Z,82.17
2022-11-29T03:13:38.354Z,81.89
2022-11-29T03:16:19.255Z,82.11
2022-11-29T03:19:12.587Z,82.09
2022-11-29T03:21:45.694Z,82.12
2022-11-29T03:24:40.182Z,82.21
2022-11-29T03:27:25.615Z,82.25
2022-11-29T03:30:02.645Z,82.20
2022-11-29T03:32:52.439Z,82.39
2022-11-29T03:35:30.024Z,82.58
2022-11-29T03:38:03.339Z,83.43
2022-11-29T03:41:06.725Z,83.03
2022-11-29T03:44:10.103Z,84.26
2022-11-29T03:46:48.030Z,85.62
2022-11-29T03:49:46.378Z,84.61
2022-11-29T03:52:52.377Z,84.18
2022-11-29T03:55:48.814Z,84.69
2022-11-29T03:58:32.539Z,83.83
2022-11-29T04:01:22.473Z,83.75
2022-11-29T04:04:13.496Z,83.77
2022-11-29T04:07:00.208Z,83.93
2022-11-29T04:10:06.325Z,83.62
2022-11-29T04:12:49.229Z,83.25
2022-11-29T04:15:49.606Z,83.82
2022-11-29T04:18:55.367Z,83.23
2022-11-29T04:22:07.870Z,83.29
2022-11-29T04:25:01.099Z,83.42
2022-11-29T04:27:41.876Z,83.86
2022-11-29T04:30:20.693Z,83.65
2022-11-29T04:33:27.847Z,83.77
2022-11-29T04:36:14.817Z,83.61
2022-11-29T04:39:12.406Z,83.79
2022-11-29T04:42:29.025Z,83.80
2022-11-29T04:45:35.591Z,83.56
2022-11-29T04:48:49.059Z,83.45
2022-11-29T04:51:40.528Z,83.53
2022-11-29T04:54:22.363Z,83.65
2022-11-29T04:56:55.276Z,84.35
2022-11-29T04:59:50.216Z,83.94
2022-11-29T05:02:51.649Z,84.28
2022-11-29T05:05:48.190Z,83.91
2022-11-29T05:08:31.204Z,84.12
2022-11-29T05:11:11.758Z,84.28
2022-11-29T05:13:53.343Z,84.82
2022-11-29T05:16:46.706Z,84.35
2022-11-29T05:19:30.037Z,84.29
2022-11-29T05:22:09.397Z,85.03
2022-11-29T05:24:47.067Z,85.64
2022-11-29T05:27:21.528Z,86.09
2022-11-29T05:30:02.429Z,87.01
2022-11-29T05:32:33.937Z,86.22
2022-11-29T05:35:18.634Z,86.45
2022-11-29T05:37:59.911Z,86.03
2022-11-29T05:40:28.125Z,85.98
2022-11-29T05:43:02.538Z,85.93
2022-11-29T05:45:46.957Z,86.11
2022-11-29T05:48:26.757Z,85.94
2022-11-29T05:51:22.371Z,86.58
2022-11-29T05:54:08.568Z,86.93
2022-11-29T05:56:49.500Z,86.92
2022-11-29T05:59:30.708Z,87.38
2022-11-29T06:02:02.095Z,87.42
2022-11-29T06:04:48.409Z,86.54
2022-11-29T06:07:24.951Z,86.77
2022-11-29T06:10:29.885Z,86.60
2022-11-29T06:13:22.192Z,86.94
2022-11-29T06:16:02.327Z,86.16
2022-11-29T06:22:50.801Z,86.72
2022-11-29T06:25:36.169Z,87.32
2022-11-29T06:28:05.170Z,87.32
2022-11-29T06:31:03.668Z,86.74
2022-11-29T06:33:46.917Z,87.46
2022-11-29T06:36:31.453Z,87.42
2022-11-29T06:38:59.982Z,86.58
2022-11-29T06:41:28.638Z,86.11
2022-11-29T06:43:57.261Z,86.81
2022-11-29T06:46:39.483Z,86.71
2022-11-29T06:49:27.236Z,86.13
2022-11-29T06:52:25.766Z,85.36
2022-11-29T06:55:12.561Z,85.33
2022-11-29T06:58:10.929Z,84.01
2022-11-29T07:00:48.270Z,82.87
2022-11-29T07:03:35.550Z,82.38
2022-11-29T07:06:14.003Z,81.48
2022-11-29T07:08:43.368Z,81.38
2022-11-29T07:11:14.470Z,78.75
2022-11-29T07:13:43.035Z,78.43
2022-11-29T07:16:57.563Z,77.99
2022-11-29T07:19:54.485Z,77.17
2022-11-29T07:22:46.890Z,75.53
2022-11-29T07:25:21.409Z,74.94
2022-11-29T07:28:02.693Z,74.58
2022-11-29T07:30:48.042Z,74.68
2022-11-29T07:33:30.345Z,74.89
2022-11-29T07:36:13.982Z,74.68
2022-11-29T07:39:09.839Z,75.15
2022-11-29T07:41:55.978Z,73.19
2022-11-29T07:44:56.336Z,73.05
2022-11-29T07:47:24.573Z,71.66
2022-11-29T07:49:52.929Z,72.30
2022-11-29T07:52:21.175Z,71.40
2022-11-29T07:54:49.470Z,71.81
2022-11-29T07:57:17.788Z,70.76
2022-11-29T07:59:46.242Z,69.94
2022-11-29T08:02:14.728Z,69.21
2022-11-29T08:04:46.986Z,69.41
2022-11-29T08:07:15.550Z,70.82
2022-11-29T08:09:44.279Z,69.21
2022-11-29T08:12:12.793Z,68.67
2022-11-29T08:14:41.053Z,68.43
2022-11-29T08:17:09.746Z,67.01
2022-11-29T08:19:38.227Z,67.32
2022-11-29T08:22:06.618Z,67.47
2022-11-29T08:24:34.877Z,65.84
2022-11-29T08:27:03.228Z,66.31
2022-11-29T08:29:31.508Z,66.16
2022-11-29T08:31:59.807Z,65.72
2022-11-29T08:34:28.380Z,64.38
2022-11-29T08:36:56.815Z,63.21
2022-11-29T08:39:25.189Z,63.50
2022-11-29T08:41:53.526Z,62.87
2022-11-29T08:44:21.877Z,62.89
2022-11-29T08:47:08.779Z,62.72
2022-11-29T08:49:56.985Z,63.73
2022-11-29T08:52:44.033Z,62.52
2022-11-29T08:55:12.326Z,63.07
2022-11-29T08:57:41.268Z,61.10
2022-11-29T09:00:11.043Z,61.71
2022-11-29T09:02:39.958Z,61.89
2022-11-29T09:05:10.343Z,62.27
2022-11-29T09:07:39.221Z,62.49
2022-11-29T09:10:09.223Z,60.75
2022-11-29T09:12:39.593Z,61.13
2022-11-29T09:15:10.876Z,60.05
2022-11-29T09:17:39.164Z,59.99
2022-11-29T09:20:08.487Z,60.37
2022-11-29T09:22:36.742Z,59.94
2022-11-29T09:25:05.490Z,60.63
2022-11-29T09:27:33.746Z,60.20
2022-11-29T09:30:02.040Z,59.42
2022-11-29T09:32:31.624Z,59.47
2022-11-29T09:34:59.857Z,58.46
2022-11-29T09:37:28.156Z,57.77
2022-11-29T09:39:56.399Z,58.14
2022-11-29T09:42:30.562Z,58.38
2022-11-29T09:45:07.382Z,58.85
2022-11-29T09:48:21.220Z,59.27
2022-11-29T09:51:15.700Z,59.27
2022-11-29T09:54:22.863Z,58.28
2022-11-29T09:56:52.939Z,59.01
2022-11-29T09:59:29.169Z,58.74
2022-11-29T10:02:21.428Z,57.63
2022-11-29T10:04:59.377Z,57.07
2022-11-29T10:07:39.721Z,56.76
2022-11-29T10:10:17.413Z,55.87
2022-11-29T10:13:05.132Z,56.13
2022-11-29T10:15:40.225Z,55.79
2022-11-29T10:18:32.604Z,56.14
2022-11-29T10:21:11.823Z,55.99
2022-11-29T10:23:56.611Z,55.70
2022-11-29T10:26:28.185Z,54.90
2022-11-29T10:28:59.830Z,54.01
2022-11-29T10:31:33.361Z,53.85
2022-11-29T10:34:08.223Z,52.94
2022-11-29T10:36:41.874Z,52.63
2022-11-29T10:39:37.490Z,52.60
2022-11-29T10:42:33.032Z,52.29
2022-11-29T10:45:02.330Z,51.67
2022-11-29T10:47:32.208Z,51.92
2022-11-29T10:50:00.498Z,52.09
2022-11-29T10:52:28.715Z,51.53
2022-11-29T10:55:00.318Z,52.16
2022-11-29T10:57:28.873Z,52.39
2022-11-29T11:00:08.285Z,52.57
2022-11-29T11:02:38.210Z,51.56
2022-11-29T11:05:19.061Z,51.70
2022-11-29T11:07:57.663Z,50.87
2022-11-29T11:10:31.018Z,51.00
2022-11-29T11:13:19.448Z,51.31
2022-11-29T11:15:48.305Z,52.47
2022-11-29T11:18:22.927Z,52.11
2022-11-29T11:20:58.660Z,52.36
2022-11-29T11:23:30.944Z,52.04
2022-11-29T11:26:08.229Z,51.96
2022-11-29T11:28:48.331Z,52.05
2022-11-29T11:31:38.194Z,51.56
2022-11-29T11:34:30.101Z,52.05
2022-11-29T11:37:36.989Z,50.84
2022-11-29T11:40:29.883Z,52.44
2022-11-29T11:43:02.006Z,52.61
2022-11-29T11:45:35.165Z,52.27
2022-11-29T11:48:13.904Z,51.16
2022-11-29T11:50:49.672Z,50.93
2022-11-29T11:53:33.679Z,50.07
2022-11-29T11:56:10.698Z,49.18
2022-11-29T11:58:52.393Z,49.02
2022-11-29T12:01:37.055Z,49.41
2022-11-29T12:04:20.591Z,49.39
2022-11-29T12:07:05.624Z,48.81
2022-11-29T12:09:42.335Z,47.61
2022-11-29T12:12:30.169Z,45.67
2022-11-29T12:15:05.632Z,47.37
2022-11-29T12:17:42.003Z,47.61
2022-11-29T12:20:24.335Z,48.06
2022-11-29T12:22:55.392Z,48.62
2022-11-29T12:25:34.202Z,48.07
2022-11-29T12:28:02.497Z,48.19
2022-11-29T12:30:32.195Z,48.72
2022-11-29T12:33:05.944Z,49.09
2022-11-29T12:35:48.247Z,49.21
2022-11-29T12:38:31.754Z,49.33
2022-11-29T12:41:25.813Z,50.12
2022-11-29T12:44:35.618Z,49.92
2022-11-29T12:47:36.533Z,49.80
2022-11-29T12:50:35.978Z,49.67
2022-11-29T12:53:32.787Z,49.49
2022-11-29T12:56:22.313Z,49.37
2022-11-29T12:59:17.633Z,50.88
2022-11-29T13:01:48.772Z,51.19
2022-11-29T13:04:46.021Z,51.22
2022-11-29T13:07:26.886Z,51.15
2022-11-29T13:10:43.479Z,51.50
2022-11-29T13:13:15.090Z,52.29
2022-11-29T13:16:30.684Z,52.29
2022-11-29T13:19:43.245Z,52.88
2022-11-29T13:22:17.481Z,54.19
2022-11-29T13:24:51.923Z,54.39
2022-11-29T13:27:35.171Z,54.54
2022-11-29T13:30:05.220Z,54.86
2022-11-29T13:32:59.927Z,55.10
2022-11-29T13:35:50.268Z,55.38
2022-11-29T13:38:21.594Z,56.11
2022-11-29T13:40:49.789Z,56.22
2022-11-29T13:43:48.841Z,55.79
2022-11-29T13:46:38.754Z,55.93
2022-11-29T13:49:21.220Z,55.85
2022-11-29T13:52:04.803Z,56.02
2022-11-29T13:54:34.613Z,56.71
2022-11-29T13:57:09.298Z,56.43
2022-11-29T13:59:45.794Z,56.75
2022-11-29T14:02:30.495Z,57.36
2022-11-29T14:04:59.351Z,57.92
2022-11-29T14:07:27.765Z,57.74
2022-11-29T14:10:26.385Z,57.81
2022-11-29T14:12:57.817Z,58.22
2022-11-29T14:15:29.554Z,58.23
2022-11-29T14:18:01.416Z,58.40
2022-11-29T14:20:29.917Z,58.42
2022-11-29T14:23:07.887Z,58.57
2022-11-29T14:26:03.878Z,58.79
2022-11-29T14:28:34.668Z,58.98
2022-11-29T14:31:04.962Z,59.34
2022-11-29T14:34:07.160Z,59.31
2022-11-29T14:36:47.801Z,59.19
2022-11-29T14:39:47.220Z,59.37
2022-11-29T14:42:22.158Z,59.87
2022-11-29T14:44:58.431Z,59.66
2022-11-29T14:47:30.014Z,59.94
2022-11-29T14:50:01.872Z,60.21
2022-11-29T14:52:38.846Z,60.25
2022-11-29T14:55:29.828Z,60.06
2022-11-29T14:58:01.275Z,60.27
2022-11-29T15:00:36.567Z,60.56
2022-11-29T15:03:31.276Z,60.57
2022-11-29T15:06:08.758Z,60.50
2022-11-29T15:09:02.144Z,60.38
2022-11-29T15:11:50.426Z,60.54
2022-11-29T15:14:28.108Z,60.20
2022-11-29T15:17:20.001Z,60.34
2022-11-29T15:20:23.714Z,60.63
2022-11-29T15:22:58.405Z,60.74
2022-11-29T15:25:32.149Z,60.98
2022-11-29T15:28:06.117Z,61.15
2022-11-29T15:30:36.329Z,61.29
2022-11-29T15:33:07.668Z,61.60
2022-11-29T15:35:37.206Z,61.76
2022-11-29T15:38:05.547Z,61.93
2022-11-29T15:40:39.150Z,61.94
2022-11-29T15:43:25.839Z,61.92
2022-11-29T15:45:55.773Z,62.11
2022-11-29T15:48:27.130Z,62.16
2022-11-29T15:51:04.912Z,62.24
2022-11-29T15:53:47.286Z,62.30
2022-11-29T15:56:35.427Z,62.39
2022-11-29T15:59:12.982Z,62.33
2022-11-29T16:01:46.781Z,62.59
2022-11-29T16:04:21.750Z,63.09
2022-11-29T16:06:52.050Z,63.46
2022-11-29T16:09:29.988Z,63.27
2022-11-29T16:12:00.571Z,63.58
2022-11-29T16:14:29.628Z,64.32
2022-11-29T16:17:01.048Z,64.48
2022-11-29T16:19:38.275Z,64.09
2022-11-29T16:22:12.727Z,64.21
2022-11-29T16:25:15.639Z,64.56
2022-11-29T16:27:44.144Z,64.52
2022-11-29T16:30:24.911Z,64.48
2022-11-29T16:32:57.943Z,64.43
2022-11-29T16:35:33.395Z,64.44
2022-11-29T16:38:04.789Z,64.62
2022-11-29T16:40:35.582Z,65.18
2022-11-29T16:43:03.863Z,65.20
2022-11-29T16:45:35.125Z,65.29
2022-11-29T16:48:15.576Z,65.31
2022-11-29T16:50:43.967Z,65.48
2022-11-29T16:53:39.690Z,65.80
2022-11-29T16:56:13.523Z,65.99
2022-11-29T16:59:17.268Z,66.46
2022-11-29T17:01:31.907Z,66.52
2022-11-29T17:04:00.949Z,66.52
2022-11-29T17:06:30.249Z,66.34
2022-11-29T17:08:59.631Z,66.14
2022-11-29T17:11:27.994Z,66.43
2022-11-29T17:13:56.430Z,66.70
2022-11-29T17:16:25.296Z,67.16
2022-11-29T17:18:54.002Z,66.79
2022-11-29T17:21:24.876Z,67.36
2022-11-29T17:23:53.918Z,67.41
2022-11-29T17:26:22.457Z,67.44
2022-11-29T17:28:52.427Z,67.41
2022-11-29T17:31:23.659Z,67.15
2022-11-29T17:33:52.615Z,66.98
2022-11-29T17:36:22.028Z,67.32
2022-11-29T17:38:50.447Z,67.70
2022-11-29T17:41:22.713Z,67.88
2022-11-29T17:43:52.362Z,67.86
2022-11-29T17:46:27.153Z,67.92
2022-11-29T17:48:56.549Z,67.46
2022-11-29T17:54:13.612Z,67.92
2022-11-29T17:56:41.851Z,68.18
2022-11-29T17:59:10.218Z,68.41
2022-11-29T18:01:38.626Z,68.27
2022-11-29T18:04:08.612Z,68.47
2022-11-29T18:06:39.526Z,68.84
2022-11-29T18:09:08.819Z,68.80
2022-11-29T18:11:47.701Z,69.36
2022-11-29T18:14:20.794Z,69.38
2022-11-29T18:16:49.562Z,69.23
2022-11-29T18:19:20.655Z,69.42
2022-11-29T18:21:49.794Z,69.54
2022-11-29T18:24:18.721Z,69.33
2022-11-29T18:26:47.532Z,69.65
2022-11-29T18:29:16.027Z,69.83
2022-11-29T18:31:46.203Z,69.45
2022-11-29T18:34:15.478Z,69.53
2022-11-29T18:36:46.689Z,69.91
2022-11-29T18:39:17.805Z,70.46
2022-11-29T18:41:49.070Z,70.45
2022-11-29T18:44:20.477Z,70.07
2022-11-29T18:46:49.359Z,70.03
2022-11-29T18:49:18.579Z,70.42
2022-11-29T18:51:47.713Z,70.48
2022-11-29T18:54:19.070Z,70.02
2022-11-29T18:56:50.314Z,70.44
2022-11-29T18:59:18.648Z,70.99
2022-11-29T19:01:48.673Z,71.00
2022-11-29T19:04:21.294Z,71.12
2022-11-29T19:06:49.815Z,71.03
2022-11-29T19:09:22.261Z,70.87
2022-11-29T19:11:51.454Z,71.14
2022-11-29T19:14:19.969Z,71.58
2022-11-29T19:16:50.325Z,71.49
2022-11-29T19:19:19.151Z,71.34
2022-11-29T19:21:48.074Z,71.29
2022-11-29T19:24:18.357Z,71.23
2022-11-29T19:26:49.983Z,71.40
2022-11-29T19:29:18.719Z,72.34
2022-11-29T19:31:47.084Z,72.56
2022-11-29T19:34:15.476Z,72.26
2022-11-29T19:36:45.352Z,72.20
2022-11-29T19:39:16.101Z,72.62
2022-11-29T19:41:46.891Z,72.55
2022-11-29T19:44:15.569Z,72.25
2022-11-29T19:46:48.452Z,72.62
2022-11-29T19:49:16.929Z,73.60
2022-11-29T19:51:48.186Z,74.07
2022-11-29T19:54:16.546Z,73.53
2022-11-29T19:56:44.873Z,73.68
2022-11-29T19:59:13.577Z,73.80
2022-11-29T20:01:43.025Z,74.43
2022-11-29T20:04:13.925Z,74.12
2022-11-29T20:06:44.540Z,73.95
2022-11-29T20:09:14.281Z,73.82
2022-11-29T20:11:42.713Z,73.88
2022-11-29T20:14:12.586Z,73.96
2022-11-29T20:16:41.765Z,73.87
2022-11-29T20:19:12.544Z,74.18
2022-11-29T20:21:49.051Z,73.77
2022-11-29T20:24:19.582Z,73.68
2022-11-29T20:26:48.785Z,73.64
2022-11-29T20:29:18.080Z,74.04
2022-11-29T20:31:50.822Z,73.88
2022-11-29T20:34:20.087Z,74.16
2022-11-29T20:37:10.319Z,73.84
2022-11-29T20:39:52.457Z,73.79
2022-11-29T20:42:45.276Z,74.12
2022-11-29T20:45:15.049Z,74.50
2022-11-29T20:47:46.781Z,74.44
2022-11-29T20:50:23.138Z,74.24
2022-11-29T20:53:01.468Z,74.36
2022-11-29T20:55:30.744Z,74.15
2022-11-29T20:58:00.560Z,74.40
2022-11-29T21:00:28.888Z,74.31
2022-11-29T21:03:03.345Z,74.36
2022-11-29T21:05:42.032Z,74.77
2022-11-29T21:08:19.426Z,75.01
2022-11-29T21:10:49.466Z,75.07
2022-11-29T21:13:20.474Z,74.94
2022-11-29T21:15:49.133Z,74.83
2022-11-29T21:18:22.888Z,74.74
2022-11-29T21:21:21.870Z,74.94
2022-11-29T21:24:10.778Z,74.68
2022-11-29T21:26:54.667Z,74.89
2022-11-29T21:29:23.797Z,75.07
2022-11-29T21:31:54.270Z,74.81
2022-11-29T21:34:22.561Z,74.82
2022-11-29T21:36:57.136Z,74.61
2022-11-29T21:39:35.100Z,74.73
2022-11-29T21:42:05.945Z,75.02
2022-11-29T21:44:34.180Z,74.67
2022-11-29T21:47:06.155Z,74.89
2022-11-29T21:49:37.108Z,74.77
2022-11-29T21:52:22.275Z,75.02
2022-11-29T21:54:54.379Z,75.31
2022-11-29T21:57:25.792Z,75.21
2022-11-29T21:59:54.234Z,75.13
2022-11-29T22:02:22.686Z,75.45
2022-11-29T22:04:51.004Z,75.19
2022-11-29T22:07:26.043Z,75.42
2022-11-29T22:09:56.870Z,75.31
2022-11-29T22:12:52.344Z,75.60
2022-11-29T22:15:24.788Z,75.43
2022-11-29T22:18:05.665Z,75.77
2022-11-29T22:20:47.494Z,75.38
2022-11-29T22:23:28.974Z,75.88
2022-11-29T22:26:05.803Z,75.62
2022-11-29T22:28:38.348Z,75.66
2022-11-29T22:31:11.108Z,76.05
2022-11-29T22:33:49.382Z,76.18
2022-11-29T22:36:22.159Z,75.97
2022-11-29T22:38:50.480Z,76.19
2022-11-29T22:41:18.730Z,75.95
2022-11-29T22:43:52.049Z,76.08
2022-11-29T22:46:25.317Z,75.77
2022-11-29T22:49:00.708Z,75.82
2022-11-29T22:51:33.024Z,76.34
2022-11-29T22:54:03.980Z,76.10
2022-11-29T22:56:33.456Z,75.92
2022-11-29T22:59:01.976Z,76.28
2022-11-29T23:01:32.690Z,76.26
2022-11-29T23:04:04.289Z,75.95
2022-11-29T23:06:37.967Z,75.86
2022-11-29T23:09:10.831Z,76.12
2022-11-29T23:11:39.454Z,76.52
2022-11-29T23:14:07.750Z,76.53
2022-11-29T23:16:36.437Z,76.58
2022-11-29T23:19:04.921Z,76.53
2022-11-29T23:21:36.087Z,76.85
2022-11-29T23:24:05.114Z,76.84
2022-11-29T23:26:39.730Z,77.02
2022-11-29T23:29:11.225Z,76.85
2022-11-29T23:31:40.567Z,77.12
2022-11-29T23:34:09.650Z,77.13
2022-11-29T23:36:37.981Z,77.18
2022-11-29T23:39:07.348Z,77.79
2022-11-29T23:41:38.620Z,77.64
2022-11-29T23:44:08.823Z,77.46
2022-11-29T23:46:37.178Z,77.45
2022-11-29T23:49:05.457Z,77.19
2022-11-29T23:51:33.741Z,77.31
2022-11-29T23:54:01.998Z,77.48
2022-11-29T23:56:35.493Z,77.41
2022-11-29T23:59:04.237Z,77.04
